sensor_id;sensor_type;location;lat;lon;timestamp;temperature;humidity
9157;DHT22;4613;48.392;9.998;2022-12-20T00:01:53;0.60;99.90
9157;DHT22;4613;48.392;9.998;2022-12-20T00:04:43;0.60;99.90
9157;DHT22;4613;48.392;9.998;2022-12-20T00:07:33;0.70;99.90
9157;DHT22;4613;48.392;9.998;2022-12-20T00:10:22;0.80;99.90
9157;DHT22;4613;48.392;9.998;2022-12-20T00:13:12;0.70;99.90
9157;DHT22;4613;48.392;9.998;2022-12-20T00:16:13;0.70;99.90
9157;DHT22;4613;48.392;9.998;2022-12-20T00:19:05;0.60;99.90
9157;DHT22;4613;48.392;9.998;2022-12-20T00:21:54;0.50;99.90
9157;DHT22;4613;48.392;9.998;2022-12-20T00:24:44;0.40;99.90
9157;DHT22;4613;48.392;9.998;2022-12-20T00:27:33;0.40;99.90
9157;DHT22;4613;48.392;9.998;2022-12-20T00:30:23;0.40;99.90
9157;DHT22;4613;48.392;9.998;2022-12-20T00:33:13;0.60;99.90
9157;DHT22;4613;48.392;9.998;2022-12-20T00:36:04;0.50;99.90
9157;DHT22;4613;48.392;9.998;2022-12-20T00:38:57;0.50;99.90
9157;DHT22;4613;48.392;9.998;2022-12-20T00:41:47;0.50;99.90
9157;DHT22;4613;48.392;9.998;2022-12-20T00:44:36;0.60;99.90
9157;DHT22;4613;48.392;9.998;2022-12-20T00:47:26;0.40;99.90
9157;DHT22;4613;48.392;9.998;2022-12-20T00:50:16;0.50;99.90
9157;DHT22;4613;48.392;9.998;2022-12-20T00:53:06;0.60;99.90
9157;DHT22;4613;48.392;9.998;2022-12-20T00:55:58;0.50;99.90
9157;DHT22;4613;48.392;9.998;2022-12-20T00:58:48;0.30;99.90
9157;DHT22;4613;48.392;9.998;2022-12-20T01:01:37;0.10;99.90
9157;DHT22;4613;48.392;9.998;2022-12-20T01:04:30;0.10;99.90
9157;DHT22;4613;48.392;9.998;2022-12-20T01:07:19;0.20;99.90
9157;DHT22;4613;48.392;9.998;2022-12-20T01:10:12;0.20;99.90
9157;DHT22;4613;48.392;9.998;2022-12-20T01:13:02;0.20;99.90
9157;DHT22;4613;48.392;9.998;2022-12-20T01:15:52;0.40;99.90
9157;DHT22;4613;48.392;9.998;2022-12-20T01:18:42;0.60;99.90
9157;DHT22;4613;48.392;9.998;2022-12-20T01:21:31;0.50;99.90
9157;DHT22;4613;48.392;9.998;2022-12-20T01:24:21;0.50;99.90
9157;DHT22;4613;48.392;9.998;2022-12-20T01:27:10;0.50;99.90
9157;DHT22;4613;48.392;9.998;2022-12-20T01:30:00;0.40;99.90
9157;DHT22;4613;48.392;9.998;2022-12-20T01:32:54;0.40;99.90
9157;DHT22;4613;48.392;9.998;2022-12-20T01:35:59;0.40;99.90
9157;DHT22;4613;48.392;9.998;2022-12-20T01:38:49;0.40;99.90
9157;DHT22;4613;48.392;9.998;2022-12-20T01:41:44;0.50;99.90
9157;DHT22;4613;48.392;9.998;2022-12-20T01:47:46;0.60;99.90
9157;DHT22;4613;48.392;9.998;2022-12-20T01:50:36;0.50;99.90
9157;DHT22;4613;48.392;9.998;2022-12-20T01:53:26;0.50;99.90
9157;DHT22;4613;48.392;9.998;2022-12-20T01:56:16;0.40;99.90
9157;DHT22;4613;48.392;9.998;2022-12-20T01:59:07;0.30;99.90
9157;DHT22;4613;48.392;9.998;2022-12-20T02:01:58;0.30;99.90
9157;DHT22;4613;48.392;9.998;2022-12-20T02:04:50;0.20;99.90
9157;DHT22;4613;48.392;9.998;2022-12-20T02:07:40;0.20;99.90
9157;DHT22;4613;48.392;9.998;2022-12-20T02:10:58;0.30;99.90
9157;DHT22;4613;48.392;9.998;2022-12-20T02:16:48;0.20;99.90
9157;DHT22;4613;48.392;9.998;2022-12-20T02:31:42;0.20;99.90
9157;DHT22;4613;48.392;9.998;2022-12-20T02:34:36;0.00;99.90
9157;DHT22;4613;48.392;9.998;2022-12-20T02:37:26;-0.10;99.90
9157;DHT22;4613;48.392;9.998;2022-12-20T02:40:20;0.00;99.90
9157;DHT22;4613;48.392;9.998;2022-12-20T02:43:11;0.00;99.90
9157;DHT22;4613;48.392;9.998;2022-12-20T02:46:22;-0.10;99.90
9157;DHT22;4613;48.392;9.998;2022-12-20T02:49:22;-0.10;99.90
9157;DHT22;4613;48.392;9.998;2022-12-20T02:52:14;-0.10;99.90
9157;DHT22;4613;48.392;9.998;2022-12-20T02:55:05;0.10;99.90
9157;DHT22;4613;48.392;9.998;2022-12-20T02:58:02;0.00;99.90
9157;DHT22;4613;48.392;9.998;2022-12-20T03:00:55;0.00;99.90
9157;DHT22;4613;48.392;9.998;2022-12-20T03:03:46;0.00;99.90
9157;DHT22;4613;48.392;9.998;2022-12-20T03:06:38;-0.20;99.90
9157;DHT22;4613;48.392;9.998;2022-12-20T03:09:34;-0.10;99.90
9157;DHT22;4613;48.392;9.998;2022-12-20T03:12:23;-0.10;99.90
9157;DHT22;4613;48.392;9.998;2022-12-20T03:15:13;0.00;99.90
9157;DHT22;4613;48.392;9.998;2022-12-20T03:18:03;0.30;99.90
9157;DHT22;4613;48.392;9.998;2022-12-20T03:20:55;0.40;99.90
9157;DHT22;4613;48.392;9.998;2022-12-20T03:23:44;0.50;99.90
9157;DHT22;4613;48.392;9.998;2022-12-20T03:26:34;0.30;99.90
9157;DHT22;4613;48.392;9.998;2022-12-20T03:29:23;0.40;99.90
9157;DHT22;4613;48.392;9.998;2022-12-20T03:32:16;0.40;99.90
9157;DHT22;4613;48.392;9.998;2022-12-20T03:35:07;0.20;99.90
9157;DHT22;4613;48.392;9.998;2022-12-20T03:38:00;0.30;99.90
9157;DHT22;4613;48.392;9.998;2022-12-20T03:40:50;-0.20;99.90
9157;DHT22;4613;48.392;9.998;2022-12-20T03:43:43;-0.20;99.90
9157;DHT22;4613;48.392;9.998;2022-12-20T03:46:33;-0.20;99.90
9157;DHT22;4613;48.392;9.998;2022-12-20T03:49:22;-0.30;99.90
9157;DHT22;4613;48.392;9.998;2022-12-20T03:52:14;-0.30;99.90
9157;DHT22;4613;48.392;9.998;2022-12-20T03:55:04;-0.40;99.90
9157;DHT22;4613;48.392;9.998;2022-12-20T03:58:00;-0.40;99.90
9157;DHT22;4613;48.392;9.998;2022-12-20T04:00:56;-0.40;99.90
9157;DHT22;4613;48.392;9.998;2022-12-20T04:04:02;-0.40;99.90
9157;DHT22;4613;48.392;9.998;2022-12-20T04:06:52;-0.30;99.90
9157;DHT22;4613;48.392;9.998;2022-12-20T04:09:41;-0.40;99.90
9157;DHT22;4613;48.392;9.998;2022-12-20T04:12:34;-0.40;99.90
9157;DHT22;4613;48.392;9.998;2022-12-20T04:15:26;-0.30;99.90
9157;DHT22;4613;48.392;9.998;2022-12-20T04:18:17;-0.10;99.90
9157;DHT22;4613;48.392;9.998;2022-12-20T04:21:08;-0.10;99.90
9157;DHT22;4613;48.392;9.998;2022-12-20T04:24:02;0.10;99.90
9157;DHT22;4613;48.392;9.998;2022-12-20T04:27:18;0.00;99.90
9157;DHT22;4613;48.392;9.998;2022-12-20T04:30:09;0.10;99.90
9157;DHT22;4613;48.392;9.998;2022-12-20T04:33:05;0.10;99.90
9157;DHT22;4613;48.392;9.998;2022-12-20T04:35:55;-0.20;99.90
9157;DHT22;4613;48.392;9.998;2022-12-20T04:38:49;-0.10;99.90
9157;DHT22;4613;48.392;9.998;2022-12-20T04:41:38;-0.20;99.90
9157;DHT22;4613;48.392;9.998;2022-12-20T04:44:33;-0.30;99.90
9157;DHT22;4613;48.392;9.998;2022-12-20T04:47:23;-0.40;99.90
9157;DHT22;4613;48.392;9.998;2022-12-20T04:50:14;-0.40;99.90
9157;DHT22;4613;48.392;9.998;2022-12-20T04:53:05;-0.40;99.90
9157;DHT22;4613;48.392;9.998;2022-12-20T04:56:16;-0.40;99.90
9157;DHT22;4613;48.392;9.998;2022-12-20T04:59:06;-0.40;99.90
9157;DHT22;4613;48.392;9.998;2022-12-20T05:01:56;-0.30;99.90
9157;DHT22;4613;48.392;9.998;2022-12-20T05:05:06;-0.20;99.90
9157;DHT22;4613;48.392;9.998;2022-12-20T05:08:02;-0.20;99.90
9157;DHT22;4613;48.392;9.998;2022-12-20T05:10:59;0.10;99.90
9157;DHT22;4613;48.392;9.998;2022-12-20T05:13:55;0.30;99.90
9157;DHT22;4613;48.392;9.998;2022-12-20T05:16:45;0.10;99.90
9157;DHT22;4613;48.392;9.998;2022-12-20T05:19:34;0.00;99.90
9157;DHT22;4613;48.392;9.998;2022-12-20T05:22:24;-0.20;99.90
9157;DHT22;4613;48.392;9.998;2022-12-20T05:25:34;-0.20;99.90
9157;DHT22;4613;48.392;9.998;2022-12-20T05:28:44;-0.20;99.90
9157;DHT22;4613;48.392;9.998;2022-12-20T05:31:33;-0.10;99.90
9157;DHT22;4613;48.392;9.998;2022-12-20T05:34:26;-0.10;99.90
9157;DHT22;4613;48.392;9.998;2022-12-20T05:37:17;-0.10;99.90
9157;DHT22;4613;48.392;9.998;2022-12-20T05:40:08;0.00;99.90
9157;DHT22;4613;48.392;9.998;2022-12-20T05:42:59;0.00;99.90
9157;DHT22;4613;48.392;9.998;2022-12-20T05:45:58;0.00;99.90
9157;DHT22;4613;48.392;9.998;2022-12-20T05:48:57;0.30;99.90
9157;DHT22;4613;48.392;9.998;2022-12-20T05:51:50;0.20;99.90
9157;DHT22;4613;48.392;9.998;2022-12-20T05:54:47;0.10;99.90
9157;DHT22;4613;48.392;9.998;2022-12-20T05:57:40;0.10;99.90
9157;DHT22;4613;48.392;9.998;2022-12-20T06:00:31;0.10;99.90
9157;DHT22;4613;48.392;9.998;2022-12-20T06:03:20;0.10;99.90
9157;DHT22;4613;48.392;9.998;2022-12-20T06:06:10;0.20;99.90
9157;DHT22;4613;48.392;9.998;2022-12-20T06:09:00;0.10;99.90
9157;DHT22;4613;48.392;9.998;2022-12-20T06:12:00;0.10;99.90
9157;DHT22;4613;48.392;9.998;2022-12-20T06:14:54;0.10;99.90
9157;DHT22;4613;48.392;9.998;2022-12-20T06:17:45;0.10;99.90
9157;DHT22;4613;48.392;9.998;2022-12-20T06:20:36;0.10;99.90
9157;DHT22;4613;48.392;9.998;2022-12-20T06:23:27;0.20;99.90
9157;DHT22;4613;48.392;9.998;2022-12-20T06:26:36;0.10;99.90
9157;DHT22;4613;48.392;9.998;2022-12-20T06:29:28;0.20;99.90
9157;DHT22;4613;48.392;9.998;2022-12-20T06:32:25;0.30;99.90
9157;DHT22;4613;48.392;9.998;2022-12-20T06:35:15;0.40;99.90
9157;DHT22;4613;48.392;9.998;2022-12-20T06:38:05;0.40;99.90
9157;DHT22;4613;48.392;9.998;2022-12-20T06:40:57;0.30;99.90
9157;DHT22;4613;48.392;9.998;2022-12-20T06:43:47;0.20;99.90
9157;DHT22;4613;48.392;9.998;2022-12-20T06:46:37;0.10;99.90
9157;DHT22;4613;48.392;9.998;2022-12-20T06:49:26;0.20;99.90
9157;DHT22;4613;48.392;9.998;2022-12-20T06:52:17;0.20;99.90
9157;DHT22;4613;48.392;9.998;2022-12-20T06:55:12;0.20;99.90
9157;DHT22;4613;48.392;9.998;2022-12-20T06:58:04;0.10;99.90
9157;DHT22;4613;48.392;9.998;2022-12-20T07:00:53;0.10;99.90
9157;DHT22;4613;48.392;9.998;2022-12-20T07:03:43;0.30;99.90
9157;DHT22;4613;48.392;9.998;2022-12-20T07:06:32;0.30;99.90
9157;DHT22;4613;48.392;9.998;2022-12-20T07:09:22;0.30;99.90
9157;DHT22;4613;48.392;9.998;2022-12-20T07:12:12;0.30;99.90
9157;DHT22;4613;48.392;9.998;2022-12-20T07:15:02;0.10;99.90
9157;DHT22;4613;48.392;9.998;2022-12-20T07:17:52;0.10;99.90
9157;DHT22;4613;48.392;9.998;2022-12-20T07:20:42;0.10;99.90
9157;DHT22;4613;48.392;9.998;2022-12-20T07:23:32;0.10;99.90
9157;DHT22;4613;48.392;9.998;2022-12-20T07:26:21;0.10;99.90
9157;DHT22;4613;48.392;9.998;2022-12-20T07:29:12;0.10;99.90
9157;DHT22;4613;48.392;9.998;2022-12-20T07:32:02;0.20;99.90
9157;DHT22;4613;48.392;9.998;2022-12-20T07:34:52;0.20;99.90
9157;DHT22;4613;48.392;9.998;2022-12-20T07:37:42;0.30;99.90
9157;DHT22;4613;48.392;9.998;2022-12-20T07:40:32;0.30;99.90
9157;DHT22;4613;48.392;9.998;2022-12-20T07:43:21;0.40;99.90
9157;DHT22;4613;48.392;9.998;2022-12-20T07:46:14;0.50;99.90
9157;DHT22;4613;48.392;9.998;2022-12-20T07:49:04;0.40;99.90
9157;DHT22;4613;48.392;9.998;2022-12-20T07:51:56;0.70;99.90
9157;DHT22;4613;48.392;9.998;2022-12-20T07:54:50;0.70;99.90
9157;DHT22;4613;48.392;9.998;2022-12-20T07:57:51;1.10;99.90
9157;DHT22;4613;48.392;9.998;2022-12-20T08:00:43;1.10;99.90
9157;DHT22;4613;48.392;9.998;2022-12-20T08:03:41;1.30;99.90
9157;DHT22;4613;48.392;9.998;2022-12-20T08:06:33;1.20;99.90
9157;DHT22;4613;48.392;9.998;2022-12-20T08:09:27;0.70;99.90
9157;DHT22;4613;48.392;9.998;2022-12-20T08:12:18;0.70;99.90
9157;DHT22;4613;48.392;9.998;2022-12-20T08:15:10;0.60;99.90
9157;DHT22;4613;48.392;9.998;2022-12-20T08:18:01;0.60;99.90
9157;DHT22;4613;48.392;9.998;2022-12-20T08:20:56;0.80;99.90
9157;DHT22;4613;48.392;9.998;2022-12-20T08:23:46;0.70;99.90
9157;DHT22;4613;48.392;9.998;2022-12-20T08:26:39;0.90;99.90
9157;DHT22;4613;48.392;9.998;2022-12-20T08:29:31;0.80;99.90
9157;DHT22;4613;48.392;9.998;2022-12-20T08:32:24;0.80;99.90
9157;DHT22;4613;48.392;9.998;2022-12-20T08:35:15;0.80;99.90
9157;DHT22;4613;48.392;9.998;2022-12-20T08:38:04;0.80;99.90
9157;DHT22;4613;48.392;9.998;2022-12-20T08:40:54;1.60;99.90
9157;DHT22;4613;48.392;9.998;2022-12-20T08:43:43;1.50;99.90
9157;DHT22;4613;48.392;9.998;2022-12-20T08:46:33;1.10;99.90
9157;DHT22;4613;48.392;9.998;2022-12-20T08:49:23;1.00;99.90
9157;DHT22;4613;48.392;9.998;2022-12-20T08:52:12;1.00;99.90
9157;DHT22;4613;48.392;9.998;2022-12-20T08:55:02;1.00;99.90
9157;DHT22;4613;48.392;9.998;2022-12-20T08:57:52;0.90;99.90
9157;DHT22;4613;48.392;9.998;2022-12-20T09:00:41;1.00;99.90
9157;DHT22;4613;48.392;9.998;2022-12-20T09:03:33;1.30;99.90
9157;DHT22;4613;48.392;9.998;2022-12-20T09:06:22;1.30;99.90
9157;DHT22;4613;48.392;9.998;2022-12-20T09:09:12;1.40;99.90
9157;DHT22;4613;48.392;9.998;2022-12-20T09:12:02;1.30;99.90
9157;DHT22;4613;48.392;9.998;2022-12-20T09:14:54;1.40;99.90
9157;DHT22;4613;48.392;9.998;2022-12-20T09:17:47;1.40;99.90
9157;DHT22;4613;48.392;9.998;2022-12-20T09:20:42;1.40;99.90
9157;DHT22;4613;48.392;9.998;2022-12-20T09:23:36;1.30;99.90
9157;DHT22;4613;48.392;9.998;2022-12-20T09:26:26;1.40;99.90
9157;DHT22;4613;48.392;9.998;2022-12-20T09:29:15;1.40;99.90
9157;DHT22;4613;48.392;9.998;2022-12-20T09:32:04;1.30;99.90
9157;DHT22;4613;48.392;9.998;2022-12-20T09:34:54;1.30;99.90
9157;DHT22;4613;48.392;9.998;2022-12-20T09:37:43;1.50;99.90
9157;DHT22;4613;48.392;9.998;2022-12-20T09:40:34;1.50;99.90
9157;DHT22;4613;48.392;9.998;2022-12-20T09:43:26;1.50;99.90
9157;DHT22;4613;48.392;9.998;2022-12-20T09:46:19;1.50;99.90
9157;DHT22;4613;48.392;9.998;2022-12-20T09:49:14;1.40;99.90
9157;DHT22;4613;48.392;9.998;2022-12-20T10:01:30;1.70;99.90
9157;DHT22;4613;48.392;9.998;2022-12-20T10:04:28;1.80;99.90
9157;DHT22;4613;48.392;9.998;2022-12-20T10:07:44;1.90;99.90
9157;DHT22;4613;48.392;9.998;2022-12-20T10:13:49;1.80;99.90
9157;DHT22;4613;48.392;9.998;2022-12-20T10:16:47;1.80;99.90
9157;DHT22;4613;48.392;9.998;2022-12-20T10:23:06;2.00;99.90
9157;DHT22;4613;48.392;9.998;2022-12-20T10:25:57;2.10;99.90
9157;DHT22;4613;48.392;9.998;2022-12-20T10:28:47;2.00;99.90
9157;DHT22;4613;48.392;9.998;2022-12-20T10:31:37;2.10;99.90
9157;DHT22;4613;48.392;9.998;2022-12-20T10:34:26;2.20;99.90
9157;DHT22;4613;48.392;9.998;2022-12-20T10:37:16;2.20;99.90
9157;DHT22;4613;48.392;9.998;2022-12-20T10:40:11;2.40;99.90
9157;DHT22;4613;48.392;9.998;2022-12-20T10:43:16;2.40;99.90
9157;DHT22;4613;48.392;9.998;2022-12-20T10:46:07;2.60;99.90
9157;DHT22;4613;48.392;9.998;2022-12-20T10:52:20;2.60;99.90
9157;DHT22;4613;48.392;9.998;2022-12-20T10:55:45;2.80;99.90
9157;DHT22;4613;48.392;9.998;2022-12-20T10:58:35;2.70;99.90
9157;DHT22;4613;48.392;9.998;2022-12-20T11:01:31;3.00;99.90
9157;DHT22;4613;48.392;9.998;2022-12-20T11:04:27;3.00;99.90
9157;DHT22;4613;48.392;9.998;2022-12-20T11:07:24;3.10;99.90
9157;DHT22;4613;48.392;9.998;2022-12-20T11:10:26;2.80;99.90
9157;DHT22;4613;48.392;9.998;2022-12-20T11:13:33;2.90;99.90
9157;DHT22;4613;48.392;9.998;2022-12-20T11:16:33;3.10;99.90
9157;DHT22;4613;48.392;9.998;2022-12-20T11:28:55;3.70;99.90
9157;DHT22;4613;48.392;9.998;2022-12-20T11:37:48;3.70;99.90
9157;DHT22;4613;48.392;9.998;2022-12-20T11:40:50;3.60;99.90
9157;DHT22;4613;48.392;9.998;2022-12-20T11:50:58;3.40;99.90
9157;DHT22;4613;48.392;9.998;2022-12-20T11:54:09;3.50;99.90
9157;DHT22;4613;48.392;9.998;2022-12-20T11:57:21;3.40;99.90
9157;DHT22;4613;48.392;9.998;2022-12-20T12:00:13;3.50;99.90
9157;DHT22;4613;48.392;9.998;2022-12-20T12:03:33;3.60;99.90
9157;DHT22;4613;48.392;9.998;2022-12-20T12:06:30;3.70;99.90
9157;DHT22;4613;48.392;9.998;2022-12-20T12:09:35;3.80;99.90
9157;DHT22;4613;48.392;9.998;2022-12-20T12:12:44;3.80;99.90
9157;DHT22;4613;48.392;9.998;2022-12-20T12:16:15;3.70;99.90
9157;DHT22;4613;48.392;9.998;2022-12-20T12:19:12;3.70;99.90
9157;DHT22;4613;48.392;9.998;2022-12-20T12:25:21;3.80;99.90
9157;DHT22;4613;48.392;9.998;2022-12-20T12:28:12;3.60;99.90
9157;DHT22;4613;48.392;9.998;2022-12-20T12:31:17;3.50;99.90
9157;DHT22;4613;48.392;9.998;2022-12-20T12:37:33;3.50;99.90
9157;DHT22;4613;48.392;9.998;2022-12-20T12:40:49;3.70;99.90
9157;DHT22;4613;48.392;9.998;2022-12-20T12:43:50;3.80;99.90
9157;DHT22;4613;48.392;9.998;2022-12-20T12:46:40;3.80;99.90
9157;DHT22;4613;48.392;9.998;2022-12-20T12:49:31;3.70;99.90
9157;DHT22;4613;48.392;9.998;2022-12-20T12:52:48;3.40;99.90
9157;DHT22;4613;48.392;9.998;2022-12-20T12:55:53;3.60;99.90
9157;DHT22;4613;48.392;9.998;2022-12-20T13:08:01;3.70;99.90
9157;DHT22;4613;48.392;9.998;2022-12-20T13:11:10;3.70;99.90
9157;DHT22;4613;48.392;9.998;2022-12-20T13:20:01;3.60;99.90
9157;DHT22;4613;48.392;9.998;2022-12-20T13:29:35;3.50;99.90
9157;DHT22;4613;48.392;9.998;2022-12-20T13:36:11;3.30;99.90
9157;DHT22;4613;48.392;9.998;2022-12-20T13:42:33;4.00;99.90
9157;DHT22;4613;48.392;9.998;2022-12-20T13:45:28;4.10;99.90
9157;DHT22;4613;48.392;9.998;2022-12-20T13:48:26;4.00;99.90
9157;DHT22;4613;48.392;9.998;2022-12-20T13:51:20;3.80;99.90
9157;DHT22;4613;48.392;9.998;2022-12-20T13:54:18;3.70;99.90
9157;DHT22;4613;48.392;9.998;2022-12-20T13:57:14;3.60;99.90
9157;DHT22;4613;48.392;9.998;2022-12-20T14:00:11;3.60;99.90
9157;DHT22;4613;48.392;9.998;2022-12-20T14:06:13;3.60;99.90
9157;DHT22;4613;48.392;9.998;2022-12-20T14:09:03;3.50;99.90
9157;DHT22;4613;48.392;9.998;2022-12-20T14:11:54;3.50;99.90
9157;DHT22;4613;48.392;9.998;2022-12-20T14:14:51;3.50;99.90
9157;DHT22;4613;48.392;9.998;2022-12-20T14:17:45;3.50;99.90
9157;DHT22;4613;48.392;9.998;2022-12-20T14:20:36;3.40;99.90
9157;DHT22;4613;48.392;9.998;2022-12-20T14:23:48;3.40;99.90
9157;DHT22;4613;48.392;9.998;2022-12-20T14:26:43;3.50;99.90
9157;DHT22;4613;48.392;9.998;2022-12-20T14:29:36;3.50;99.90
9157;DHT22;4613;48.392;9.998;2022-12-20T14:32:25;3.50;99.90
9157;DHT22;4613;48.392;9.998;2022-12-20T14:35:19;3.50;99.90
9157;DHT22;4613;48.392;9.998;2022-12-20T14:38:23;3.50;99.90
9157;DHT22;4613;48.392;9.998;2022-12-20T14:41:32;3.50;99.90
9157;DHT22;4613;48.392;9.998;2022-12-20T14:44:26;3.60;99.90
9157;DHT22;4613;48.392;9.998;2022-12-20T14:47:24;3.60;99.90
9157;DHT22;4613;48.392;9.998;2022-12-20T14:50:30;3.60;99.90
9157;DHT22;4613;48.392;9.998;2022-12-20T14:53:25;3.50;99.90
9157;DHT22;4613;48.392;9.998;2022-12-20T14:56:20;3.50;99.90
9157;DHT22;4613;48.392;9.998;2022-12-20T14:59:16;3.50;99.90
9157;DHT22;4613;48.392;9.998;2022-12-20T15:02:33;3.50;99.90
9157;DHT22;4613;48.392;9.998;2022-12-20T15:08:32;3.50;99.90
9157;DHT22;4613;48.392;9.998;2022-12-20T15:11:23;3.60;99.90
9157;DHT22;4613;48.392;9.998;2022-12-20T15:14:33;3.60;99.90
9157;DHT22;4613;48.392;9.998;2022-12-20T15:17:29;3.60;99.90
9157;DHT22;4613;48.392;9.998;2022-12-20T15:20:20;3.60;99.90
9157;DHT22;4613;48.392;9.998;2022-12-20T15:23:16;3.50;99.90
9157;DHT22;4613;48.392;9.998;2022-12-20T15:26:10;3.60;99.90
9157;DHT22;4613;48.392;9.998;2022-12-20T15:29:02;3.60;99.90
9157;DHT22;4613;48.392;9.998;2022-12-20T15:32:22;3.60;99.90
9157;DHT22;4613;48.392;9.998;2022-12-20T15:35:17;3.50;99.90
9157;DHT22;4613;48.392;9.998;2022-12-20T15:38:22;3.40;99.90
9157;DHT22;4613;48.392;9.998;2022-12-20T15:44:15;3.40;99.90
9157;DHT22;4613;48.392;9.998;2022-12-20T15:47:13;3.30;99.90
9157;DHT22;4613;48.392;9.998;2022-12-20T15:50:05;3.40;99.90
9157;DHT22;4613;48.392;9.998;2022-12-20T15:52:55;3.30;99.90
9157;DHT22;4613;48.392;9.998;2022-12-20T15:55:45;3.30;99.90
9157;DHT22;4613;48.392;9.998;2022-12-20T15:58:34;3.30;99.90
9157;DHT22;4613;48.392;9.998;2022-12-20T16:01:35;3.30;99.90
9157;DHT22;4613;48.392;9.998;2022-12-20T16:04:26;3.30;99.90
9157;DHT22;4613;48.392;9.998;2022-12-20T16:07:26;3.30;99.90
9157;DHT22;4613;48.392;9.998;2022-12-20T16:10:16;3.30;99.90
9157;DHT22;4613;48.392;9.998;2022-12-20T16:13:14;3.40;99.90
9157;DHT22;4613;48.392;9.998;2022-12-20T16:16:19;3.40;99.90
9157;DHT22;4613;48.392;9.998;2022-12-20T16:19:12;3.40;99.90
9157;DHT22;4613;48.392;9.998;2022-12-20T16:22:05;3.50;99.90
9157;DHT22;4613;48.392;9.998;2022-12-20T16:24:54;3.40;99.90
9157;DHT22;4613;48.392;9.998;2022-12-20T16:27:47;3.40;99.90
9157;DHT22;4613;48.392;9.998;2022-12-20T16:30:36;3.50;99.90
9157;DHT22;4613;48.392;9.998;2022-12-20T16:33:25;4.90;99.90
9157;DHT22;4613;48.392;9.998;2022-12-20T16:36:15;4.40;99.90
9157;DHT22;4613;48.392;9.998;2022-12-20T16:42:18;4.00;99.90
9157;DHT22;4613;48.392;9.998;2022-12-20T16:45:19;3.80;99.90
9157;DHT22;4613;48.392;9.998;2022-12-20T16:48:10;3.50;99.90
9157;DHT22;4613;48.392;9.998;2022-12-20T16:51:00;3.40;99.90
9157;DHT22;4613;48.392;9.998;2022-12-20T16:53:52;3.50;99.90
9157;DHT22;4613;48.392;9.998;2022-12-20T16:56:42;3.40;99.90
9157;DHT22;4613;48.392;9.998;2022-12-20T16:59:35;3.50;99.90
9157;DHT22;4613;48.392;9.998;2022-12-20T17:02:27;3.60;99.90
9157;DHT22;4613;48.392;9.998;2022-12-20T17:05:37;3.50;99.90
9157;DHT22;4613;48.392;9.998;2022-12-20T17:08:30;3.40;99.90
9157;DHT22;4613;48.392;9.998;2022-12-20T17:11:22;3.30;99.90
9157;DHT22;4613;48.392;9.998;2022-12-20T17:14:12;3.50;99.90
9157;DHT22;4613;48.392;9.998;2022-12-20T17:17:02;3.60;99.90
9157;DHT22;4613;48.392;9.998;2022-12-20T17:19:59;3.70;99.90
9157;DHT22;4613;48.392;9.998;2022-12-20T17:23:12;3.70;99.90
9157;DHT22;4613;48.392;9.998;2022-12-20T17:26:16;3.60;99.90
9157;DHT22;4613;48.392;9.998;2022-12-20T17:29:08;3.40;99.90
9157;DHT22;4613;48.392;9.998;2022-12-20T17:36:07;3.10;99.90
9157;DHT22;4613;48.392;9.998;2022-12-20T17:38:57;3.20;99.90
9157;DHT22;4613;48.392;9.998;2022-12-20T17:41:51;3.20;99.90
9157;DHT22;4613;48.392;9.998;2022-12-20T17:44:42;3.10;99.90
9157;DHT22;4613;48.392;9.998;2022-12-20T17:47:35;3.10;99.90
9157;DHT22;4613;48.392;9.998;2022-12-20T17:50:25;3.10;99.90
9157;DHT22;4613;48.392;9.998;2022-12-20T17:53:16;3.10;99.90
9157;DHT22;4613;48.392;9.998;2022-12-20T17:56:27;3.10;99.90
9157;DHT22;4613;48.392;9.998;2022-12-20T17:59:31;3.30;99.90
9157;DHT22;4613;48.392;9.998;2022-12-20T18:02:31;3.30;99.90
9157;DHT22;4613;48.392;9.998;2022-12-20T18:05:26;3.30;99.90
9157;DHT22;4613;48.392;9.998;2022-12-20T18:08:23;3.40;99.90
9157;DHT22;4613;48.392;9.998;2022-12-20T18:11:12;3.40;99.90
9157;DHT22;4613;48.392;9.998;2022-12-20T18:14:05;3.40;99.90
9157;DHT22;4613;48.392;9.998;2022-12-20T18:16:59;3.40;99.90
9157;DHT22;4613;48.392;9.998;2022-12-20T18:20:00;3.40;99.90
9157;DHT22;4613;48.392;9.998;2022-12-20T18:22:49;3.30;99.90
9157;DHT22;4613;48.392;9.998;2022-12-20T18:25:39;3.30;99.90
9157;DHT22;4613;48.392;9.998;2022-12-20T18:28:29;3.10;99.90
9157;DHT22;4613;48.392;9.998;2022-12-20T18:31:21;3.10;99.90
9157;DHT22;4613;48.392;9.998;2022-12-20T18:34:13;3.20;99.90
9157;DHT22;4613;48.392;9.998;2022-12-20T18:37:03;3.20;99.90
9157;DHT22;4613;48.392;9.998;2022-12-20T18:39:53;3.20;99.90
9157;DHT22;4613;48.392;9.998;2022-12-20T18:42:43;3.30;99.90
9157;DHT22;4613;48.392;9.998;2022-12-20T18:45:38;3.20;99.90
9157;DHT22;4613;48.392;9.998;2022-12-20T18:48:34;3.00;99.90
9157;DHT22;4613;48.392;9.998;2022-12-20T18:51:30;3.00;99.90
9157;DHT22;4613;48.392;9.998;2022-12-20T18:54:22;2.90;99.90
9157;DHT22;4613;48.392;9.998;2022-12-20T18:57:11;2.90;99.90
9157;DHT22;4613;48.392;9.998;2022-12-20T19:00:03;2.90;99.90
9157;DHT22;4613;48.392;9.998;2022-12-20T19:02:53;2.90;99.90
9157;DHT22;4613;48.392;9.998;2022-12-20T19:05:56;2.80;99.90
9157;DHT22;4613;48.392;9.998;2022-12-20T19:08:47;2.80;99.90
9157;DHT22;4613;48.392;9.998;2022-12-20T19:11:41;2.70;99.90
9157;DHT22;4613;48.392;9.998;2022-12-20T19:14:37;2.70;99.90
9157;DHT22;4613;48.392;9.998;2022-12-20T19:17:27;2.60;99.90
9157;DHT22;4613;48.392;9.998;2022-12-20T19:20:17;2.70;99.90
9157;DHT22;4613;48.392;9.998;2022-12-20T19:23:35;2.70;99.90
9157;DHT22;4613;48.392;9.998;2022-12-20T19:26:28;2.70;99.90
9157;DHT22;4613;48.392;9.998;2022-12-20T19:29:24;2.70;99.90
9157;DHT22;4613;48.392;9.998;2022-12-20T19:32:13;2.70;99.90
9157;DHT22;4613;48.392;9.998;2022-12-20T19:35:04;2.70;99.90
9157;DHT22;4613;48.392;9.998;2022-12-20T19:37:55;2.80;99.90
9157;DHT22;4613;48.392;9.998;2022-12-20T19:40:50;2.90;99.90
9157;DHT22;4613;48.392;9.998;2022-12-20T19:43:41;2.90;99.90
9157;DHT22;4613;48.392;9.998;2022-12-20T19:46:39;2.90;99.90
9157;DHT22;4613;48.392;9.998;2022-12-20T19:49:29;3.00;99.90
9157;DHT22;4613;48.392;9.998;2022-12-20T19:52:19;3.00;99.90
9157;DHT22;4613;48.392;9.998;2022-12-20T19:55:09;2.90;99.90
9157;DHT22;4613;48.392;9.998;2022-12-20T19:57:59;2.90;99.90
9157;DHT22;4613;48.392;9.998;2022-12-20T20:00:49;2.80;99.90
9157;DHT22;4613;48.392;9.998;2022-12-20T20:03:42;2.80;99.90
9157;DHT22;4613;48.392;9.998;2022-12-20T20:06:36;2.80;99.90
9157;DHT22;4613;48.392;9.998;2022-12-20T20:09:29;2.80;99.90
9157;DHT22;4613;48.392;9.998;2022-12-20T20:12:18;2.80;99.90
9157;DHT22;4613;48.392;9.998;2022-12-20T20:15:10;2.80;99.90
9157;DHT22;4613;48.392;9.998;2022-12-20T20:17:59;2.80;99.90
9157;DHT22;4613;48.392;9.998;2022-12-20T20:20:53;2.90;99.90
9157;DHT22;4613;48.392;9.998;2022-12-20T20:23:43;2.90;99.90
9157;DHT22;4613;48.392;9.998;2022-12-20T20:26:32;3.00;99.90
9157;DHT22;4613;48.392;9.998;2022-12-20T20:29:22;2.90;99.90
9157;DHT22;4613;48.392;9.998;2022-12-20T20:32:11;2.90;99.90
9157;DHT22;4613;48.392;9.998;2022-12-20T20:35:09;3.00;99.90
9157;DHT22;4613;48.392;9.998;2022-12-20T20:37:59;3.10;99.90
9157;DHT22;4613;48.392;9.998;2022-12-20T20:40:49;3.00;99.90
9157;DHT22;4613;48.392;9.998;2022-12-20T20:43:38;3.10;99.90
9157;DHT22;4613;48.392;9.998;2022-12-20T20:46:29;2.90;99.90
9157;DHT22;4613;48.392;9.998;2022-12-20T20:49:18;3.00;99.90
9157;DHT22;4613;48.392;9.998;2022-12-20T20:52:08;2.90;99.90
9157;DHT22;4613;48.392;9.998;2022-12-20T20:54:59;2.90;99.90
9157;DHT22;4613;48.392;9.998;2022-12-20T20:57:49;2.80;99.90
9157;DHT22;4613;48.392;9.998;2022-12-20T21:00:38;2.90;99.90
9157;DHT22;4613;48.392;9.998;2022-12-20T21:03:29;2.90;99.90
9157;DHT22;4613;48.392;9.998;2022-12-20T21:06:19;2.90;99.90